Weather reports worldwide

Advertisment
Writtle, United Kingdom (99127): temperature & dewpoint: 23.09.2020 02:00:00 - 29.09.2020 02:00:00 (BST)Writtle, United Kingdom (99127): temperature -20cm: 23.09.2020 02:00:00 - 29.09.2020 02:00:00 (BST)Writtle, United Kingdom (99127): precipitation: 23.09.2020 02:00:00 - 29.09.2020 02:00:00 (BST)
Date & Time tt [°C] td [°C] tt -20cm [°C] rr [mm]
29.09.2020 02:00:00 - - - -
29.09.2020 01:00:00 9,3 8,9 - 0,0
29.09.2020 00:00:00 9,3 8,6 - 0,0
28.09.2020 23:00:00 9,8 8,9 - 0,0
28.09.2020 22:00:00 10,3 9,2 - 0,0
28.09.2020 21:00:00 11,2 9,2 - 0,0
28.09.2020 20:00:00 12,9 9,3 - 0,0
28.09.2020 19:00:00 13,9 8,6 - 0,0
28.09.2020 18:00:00 15,2 7,2 - 0,0
28.09.2020 17:00:00 16,5 3,7 - -
28.09.2020 16:00:00 17,2 1,8 - 0,0
28.09.2020 15:00:00 17,0 2,3 - 0,0
28.09.2020 14:00:00 16,1 3,5 - 0,0
28.09.2020 13:00:00 14,6 7,4 - 0,0
28.09.2020 12:00:00 14,0 7,8 - 0,0
28.09.2020 11:00:00 11,7 7,6 - 0,0
28.09.2020 10:00:00 10,9 7,3 14,0 0,0
28.09.2020 09:00:00 10,4 7,2 - 0,0
28.09.2020 08:00:00 10,1 7,2 - 0,0
28.09.2020 07:00:00 9,9 7,4 - 0,0
28.09.2020 06:00:00 9,8 7,9 - 0,0
28.09.2020 05:00:00 10,2 7,9 - 0,0
28.09.2020 04:00:00 10,4 8,2 - 0,0
28.09.2020 03:00:00 10,4 8,4 - 0,2
28.09.2020 02:00:00 10,9 8,0 - 0,0
28.09.2020 01:00:00 10,9 8,0 - 0,0
28.09.2020 00:00:00 11,0 8,0 - 0,0
27.09.2020 23:00:00 11,1 7,9 - 0,0
27.09.2020 22:00:00 11,2 7,8 - 0,0
27.09.2020 21:00:00 11,5 8,0 - 0,0
27.09.2020 20:00:00 11,8 8,0 - 0,0
27.09.2020 19:00:00 12,2 8,4 - 0,0
27.09.2020 18:00:00 12,5 8,7 - 0,0
27.09.2020 17:00:00 12,2 8,9 - 0,0
27.09.2020 16:00:00 12,1 8,8 - 0,0
27.09.2020 15:00:00 12,2 9,1 - 0,0
27.09.2020 14:00:00 12,4 9,1 - 0,0
27.09.2020 13:00:00 11,6 8,9 - 0,0
27.09.2020 12:00:00 11,2 8,5 - 0,0
27.09.2020 11:00:00 10,7 8,2 - 0,0
27.09.2020 10:00:00 10,7 8,0 - 0,0
27.09.2020 09:00:00 9,8 7,9 - 0,0
27.09.2020 08:00:00 9,2 7,8 - 0,0
27.09.2020 07:00:00 9,7 7,2 - 0,0
27.09.2020 06:00:00 9,7 7,2 - 0,0
27.09.2020 05:00:00 9,4 7,0 - 0,0
27.09.2020 04:00:00 9,6 7,1 - 0,0
27.09.2020 03:00:00 9,7 7,2 - 0,0
27.09.2020 02:00:00 9,5 7,3 - 0,0
27.09.2020 01:00:00 10,3 7,0 - 0,0
27.09.2020 00:00:00 10,5 6,8 - 0,0
26.09.2020 23:00:00 10,7 6,7 - 0,0
26.09.2020 22:00:00 10,8 6,9 - 0,0
26.09.2020 21:00:00 11,2 7,3 - 0,0
26.09.2020 20:00:00 11,1 7,6 - 0,0
26.09.2020 19:00:00 11,4 8,0 - 0,0
26.09.2020 18:00:00 11,3 8,1 - 0,0
26.09.2020 17:00:00 10,9 7,5 - 0,0
26.09.2020 16:00:00 10,3 7,6 - 0,0
26.09.2020 15:00:00 10,6 6,5 - 0,0
26.09.2020 14:00:00 11,1 5,4 - 0,0
26.09.2020 13:00:00 11,0 5,2 - 0,0
26.09.2020 12:00:00 9,9 4,7 - 0,0
26.09.2020 11:00:00 9,1 4,2 - 0,0
26.09.2020 10:00:00 8,0 2,6 - 0,0
26.09.2020 09:00:00 7,9 2,1 - 0,0
26.09.2020 08:00:00 6,7 1,6 - 0,0
26.09.2020 07:00:00 6,6 1,6 - 0,0
26.09.2020 06:00:00 6,6 1,8 - 0,0
26.09.2020 05:00:00 7,4 2,1 - 0,0
26.09.2020 04:00:00 8,1 2,4 - 0,0
26.09.2020 03:00:00 8,1 2,5 - 0,0
26.09.2020 02:00:00 8,3 3,0 - 0,0
26.09.2020 01:00:00 9,0 3,5 - 0,0
26.09.2020 00:00:00 9,9 4,4 - 0,0
25.09.2020 23:00:00 10,4 5,0 - 0,0
25.09.2020 22:00:00 10,3 5,4 - 0,0
25.09.2020 21:00:00 11,0 4,6 - 0,0
25.09.2020 20:00:00 11,3 3,1 - 0,0
25.09.2020 19:00:00 12,4 2,7 - 0,0
25.09.2020 18:00:00 13,1 3,5 - 0,0
25.09.2020 17:00:00 13,2 4,3 - 0,0
25.09.2020 16:00:00 12,6 4,6 - 0,0
25.09.2020 15:00:00 12,6 5,3 - 0,0
25.09.2020 14:00:00 12,0 4,8 - 0,0
25.09.2020 13:00:00 12,0 5,4 - 0,0
25.09.2020 12:00:00 11,4 6,3 - 0,0
25.09.2020 11:00:00 10,5 6,6 - 0,0
25.09.2020 10:00:00 10,0 7,0 15,2 0,0
25.09.2020 09:00:00 8,4 7,4 - 1,2
25.09.2020 08:00:00 8,5 7,3 - -
25.09.2020 07:00:00 8,5 7,5 - 0,0
25.09.2020 06:00:00 8,1 6,9 - 0,2
25.09.2020 05:00:00 7,0 6,3 - 0,0
25.09.2020 04:00:00 6,8 6,1 - 0,0
25.09.2020 03:00:00 7,0 6,6 - 0,0
25.09.2020 02:00:00 6,6 6,4 - 0,0
25.09.2020 01:00:00 6,3 5,8 - 0,0
25.09.2020 00:00:00 7,4 6,6 - 0,0
24.09.2020 23:00:00 8,9 8,2 - 0,0
24.09.2020 22:00:00 9,6 8,7 - 0,0
24.09.2020 21:00:00 9,9 8,7 - 0,0
24.09.2020 20:00:00 10,2 8,7 - 0,2
24.09.2020 19:00:00 10,6 8,8 - 0,0
24.09.2020 18:00:00 11,3 8,4 - 0,0
24.09.2020 17:00:00 11,7 7,7 - 0,2
24.09.2020 16:00:00 12,5 6,2 - 0,0
24.09.2020 15:00:00 15,4 6,2 - 0,0
24.09.2020 14:00:00 15,2 5,5 - 0,0
24.09.2020 13:00:00 16,2 6,3 - 0,0
24.09.2020 12:00:00 16,2 7,8 - 0,0
24.09.2020 11:00:00 14,6 7,7 - 0,0
24.09.2020 10:00:00 13,3 10,0 15,7 0,0
24.09.2020 09:00:00 11,0 9,7 - 0,0
24.09.2020 08:00:00 9,3 8,9 - 3,4
24.09.2020 07:00:00 8,5 7,5 - 1,2
24.09.2020 06:00:00 8,4 6,6 - 0,0
24.09.2020 05:00:00 7,5 6,0 - 0,0
24.09.2020 04:00:00 7,7 6,1 - 0,0
24.09.2020 03:00:00 8,7 6,2 - 0,0
24.09.2020 02:00:00 9,0 7,4 - 0,0
24.09.2020 01:00:00 9,4 7,1 - 0,0
24.09.2020 00:00:00 10,1 7,9 - 0,0
23.09.2020 23:00:00 11,8 9,8 - 0,0
23.09.2020 22:00:00 12,3 10,7 - 1,0
23.09.2020 21:00:00 13,1 11,9 - 0,0
23.09.2020 20:00:00 12,9 11,6 - 0,0
23.09.2020 19:00:00 15,8 13,5 - 0,2
23.09.2020 18:00:00 16,2 13,5 - 0,0
23.09.2020 17:00:00 16,7 13,2 - 0,2
23.09.2020 16:00:00 17,6 14,0 - 0,0
23.09.2020 15:00:00 17,2 14,8 - 0,2
23.09.2020 14:00:00 17,8 13,7 - 0,0
23.09.2020 13:00:00 18,6 12,7 - 0,0
23.09.2020 12:00:00 18,6 12,4 - 0,0
23.09.2020 11:00:00 18,1 14,6 - 0,0
23.09.2020 10:00:00 16,6 14,1 16,0 0,0
23.09.2020 09:00:00 16,9 14,5 - 0,0
23.09.2020 08:00:00 16,3 15,2 - 0,0
23.09.2020 07:00:00 15,7 15,1 - 0,0
23.09.2020 06:00:00 15,1 14,6 - 0,6
23.09.2020 05:00:00 14,9 14,2 - 0,4
23.09.2020 04:00:00 15,3 13,6 - 0,0
23.09.2020 03:00:00 16,0 13,1 - 0,0
23.09.2020 02:00:00 16,4 13,5 - 0,0

tt = temperature
td = dewpoint
tt -20cm = temperature -20cm
rr = precipitation

Next stations